Time;durP1;ratioP1;P1;durP2;ratioP2;P2;SDS_P1;SDS_P2;PMS_P1;PMS_P2;Temp;Humidity;BMP_temperature;BMP_pressure;BME280_temperature;BME280_humidity;BME280_pressure;Samples;Min_cycle;Max_cycle;Signal;HPM_P1;HPM_P2
2022/04/22 00:01:11;;;;;;;;;;;6.60;99.90;;;6.02;95.87;96060.63;5030925;28;19917;-60
2022/04/22 00:03:37;;;;;;;;;;;6.60;99.90;;;5.91;96.40;96050.56;5033036;28;19925;-59
2022/04/22 00:06:03;;;;;;;;;;;6.50;99.90;;;5.88;97.11;96054.13;5031029;28;19964;-59
2022/04/22 00:08:28;;;;;;;;;;;6.40;99.90;;;5.81;97.88;96052.69;5029329;28;19920;-59
2022/04/22 00:13:38;;;;;;;;;;;6.30;99.90;;;5.53;98.95;96029.38;5029423;28;19932;-59
2022/04/22 00:16:04;;;;;;;;;;;6.30;99.90;;;5.69;99.44;96056.63;5032227;28;19960;-59
2022/04/22 00:18:33;;;;;;;;;;;6.30;99.90;;;5.57;100.00;96043.19;5028586;28;20173;-59
2022/04/22 00:20:59;;;;;;;;;;;6.20;99.90;;;5.64;100.00;96055.97;5033739;28;20453;-59
2022/04/22 00:23:26;;;;;;;;;;;6.20;99.90;;;5.59;100.00;96038.75;5031943;28;19982;-59
2022/04/22 00:25:53;;;;;;;;;;;6.20;99.90;;;5.62;100.00;96041.25;5034596;28;20415;-59
2022/04/22 00:28:18;;;;;;;;;;;6.20;99.90;;;5.61;100.00;96045.63;5030403;28;19917;-60
2022/04/22 00:30:44;;;;;;;;;;;6.20;99.90;;;5.62;100.00;96044.72;5033443;28;19970;-60
2022/04/22 00:33:10;;;;;;;;;;;6.20;99.90;;;5.63;100.00;96037.72;5030772;28;19928;-60
2022/04/22 00:35:36;;;;;;;;;;;6.20;99.90;;;5.66;100.00;96042.84;5032012;28;20022;-60
2022/04/22 00:38:01;;;;;;;;;;;6.20;99.90;;;5.64;100.00;96044.66;5031354;28;19975;-60
2022/04/22 00:40:27;;;;;;;;;;;6.20;99.90;;;5.62;100.00;96036.03;5028619;28;20407;-60
2022/04/22 00:42:53;;;;;;;;;;;6.20;99.90;;;5.68;100.00;96035.78;5030554;28;19921;-60
2022/04/22 00:45:20;;;;;;;;;;;6.20;99.90;;;5.64;100.00;96035.03;5030550;28;19921;-60
2022/04/22 00:47:47;;;;;;;;;;;6.20;99.90;;;5.61;100.00;96037.78;5031658;28;19923;-60
2022/04/22 00:50:13;;;;;;;;;;;6.20;99.90;;;5.58;100.00;96030.06;5032753;28;20019;-60
2022/04/22 00:52:39;;;;;;;;;;;6.20;99.90;;;5.62;100.00;96030.78;5028317;28;19952;-60
2022/04/22 00:55:06;;;;;;;;;;;6.20;99.90;;;5.61;100.00;96018.63;5031832;28;19935;-60
2022/04/22 00:57:32;;;;;;;;;;;6.20;99.90;;;5.54;100.00;96029.34;5036354;28;19932;-60
2022/04/22 00:59:58;;;;;;;;;;;6.10;99.90;;;5.45;100.00;96013.13;5036472;28;19925;-60
2022/04/22 01:02:23;;;;;;;;;;;6.10;99.90;;;5.44;100.00;96017.53;5036200;28;19920;-60
2022/04/22 01:10:17;;;;;;;;;;;5.90;99.90;;;5.22;100.00;96000.94;5036774;28;19932;-60
2022/04/22 01:12:43;;;;;;;;;;;5.80;99.90;;;5.19;100.00;96011.50;5036130;28;19960;-60
2022/04/22 01:15:09;;;;;;;;;;;5.80;99.90;;;5.08;100.00;95999.72;5034366;28;19991;-60
2022/04/22 01:17:35;;;;;;;;;;;5.70;99.90;;;5.06;100.00;96011.13;5031359;28;19943;-60
2022/04/22 01:20:00;;;;;;;;;;;5.70;99.90;;;5.00;100.00;96000.91;5036665;28;19924;-60
2022/04/22 01:22:27;;;;;;;;;;;5.60;99.90;;;4.96;100.00;96000.16;5032149;28;20011;-60
2022/04/22 01:24:56;;;;;;;;;;;5.60;99.90;;;4.94;100.00;95989.78;5036615;28;19917;-60
2022/04/22 01:27:22;;;;;;;;;;;5.50;99.90;;;4.92;100.00;95991.59;5034964;28;19924;-60
2022/04/22 01:29:48;;;;;;;;;;;5.50;99.90;;;4.91;100.00;95991.66;5038347;28;19924;-60
2022/04/22 01:32:13;;;;;;;;;;;5.50;99.90;;;4.84;100.00;95984.94;5037034;28;19971;-60
2022/04/22 01:34:39;;;;;;;;;;;5.40;99.90;;;4.84;100.00;95982.34;5037252;28;20023;-60
2022/04/22 01:37:05;;;;;;;;;;;5.40;99.90;;;4.83;100.00;95976.25;5037239;28;20017;-60
2022/04/22 01:39:32;;;;;;;;;;;5.40;99.90;;;4.78;100.00;95981.66;5033546;28;20277;-60
2022/04/22 01:41:58;;;;;;;;;;;5.40;99.90;;;4.80;100.00;95980.75;5030849;28;19935;-60
2022/04/22 01:44:25;;;;;;;;;;;5.40;99.90;;;4.78;100.00;95975.56;5032434;28;19917;-60
2022/04/22 01:46:52;;;;;;;;;;;5.40;99.90;;;4.76;100.00;95973.03;5035776;28;19960;-59
2022/04/22 01:49:18;;;;;;;;;;;5.30;99.90;;;4.74;100.00;95961.78;5034449;28;19928;-59
2022/04/22 01:51:43;;;;;;;;;;;5.40;99.90;;;4.65;100.00;95956.91;5034832;28;20395;-60
2022/04/22 01:54:10;;;;;;;;;;;5.30;99.90;;;4.65;100.00;95949.06;5035113;28;19927;-60
2022/04/22 01:56:35;;;;;;;;;;;5.30;99.90;;;4.62;100.00;95941.34;5031847;28;19931;-60
2022/04/22 01:59:01;;;;;;;;;;;5.30;99.90;;;4.52;100.00;95925.16;5035892;28;19917;-60
2022/04/22 02:01:27;;;;;;;;;;;5.30;99.90;;;4.70;100.00;95952.38;5034673;28;20027;-60
2022/04/22 02:03:52;;;;;;;;;;;5.30;99.90;;;4.70;100.00;95951.50;5036359;28;19956;-60
2022/04/22 02:06:18;;;;;;;;;;;5.30;99.90;;;4.49;100.00;95922.66;5034411;28;20003;-60
2022/04/22 02:08:44;;;;;;;;;;;5.30;99.90;;;4.69;100.00;95950.66;5031907;28;19931;-60
2022/04/22 02:11:09;;;;;;;;;;;5.30;99.90;;;4.66;100.00;95945.53;5033788;28;20127;-60
2022/04/22 02:13:36;;;;;;;;;;;5.30;99.90;;;4.68;100.00;95948.94;5031228;28;20105;-61
2022/04/22 02:16:04;;;;;;;;;;;5.30;99.90;;;4.62;100.00;95935.28;5035872;28;19925;-60
2022/04/22 02:18:30;;;;;;;;;;;5.30;99.90;;;4.64;100.00;95944.75;5031459;28;20285;-60
2022/04/22 02:20:56;;;;;;;;;;;5.30;99.90;;;4.64;100.00;95946.50;5038472;28;19940;-59
2022/04/22 02:23:21;;;;;;;;;;;5.30;99.90;;;4.67;100.00;95942.03;5033554;28;19921;-59
2022/04/22 02:25:47;;;;;;;;;;;5.30;99.90;;;4.64;100.00;95944.75;5035716;28;19975;-60
2022/04/22 02:31:02;;;;;;;;;;;5.30;99.90;;;4.61;100.00;95937.00;5036856;28;20315;-60
2022/04/22 02:33:27;;;;;;;;;;;5.30;99.90;;;4.59;100.00;95928.38;5032667;28;19963;-60
2022/04/22 02:35:53;;;;;;;;;;;5.20;99.90;;;4.55;100.00;95932.88;5038314;28;19925;-61
2022/04/22 02:38:18;;;;;;;;;;;5.20;99.90;;;4.54;100.00;95925.09;5034768;28;20035;-61
2022/04/22 02:46:12;;;;;;;;;;;5.20;99.90;;;4.51;100.00;95915.63;5038524;28;20334;-60
2022/04/22 02:48:38;;;;;;;;;;;5.20;99.90;;;4.51;100.00;95920.00;5034183;28;19920;-61
2022/04/22 02:51:05;;;;;;;;;;;5.20;99.90;;;4.55;100.00;95917.19;5029413;28;19992;-61
2022/04/22 02:53:30;;;;;;;;;;;5.20;99.90;;;4.53;100.00;95905.97;5032759;28;19921;-61
2022/04/22 02:55:57;;;;;;;;;;;5.20;99.90;;;4.49;100.00;95907.00;5039077;28;19939;-61
2022/04/22 02:58:22;;;;;;;;;;;5.20;99.90;;;4.48;100.00;95907.06;5034088;28;19924;-61
2022/04/22 03:00:48;;;;;;;;;;;5.10;99.90;;;4.44;100.00;95901.09;5034495;28;20143;-61
2022/04/22 03:03:14;;;;;;;;;;;5.10;99.90;;;4.36;100.00;95893.56;5037150;28;20840;-61
2022/04/22 03:05:39;;;;;;;;;;;5.00;99.90;;;4.38;100.00;95904.78;5035311;28;20438;-61
2022/04/22 03:08:06;;;;;;;;;;;5.00;99.90;;;4.38;100.00;95902.19;5035422;28;19920;-61
2022/04/22 03:10:31;;;;;;;;;;;5.00;99.90;;;4.36;100.00;95901.38;5034429;28;20368;-61
2022/04/22 03:12:57;;;;;;;;;;;5.00;99.90;;;4.30;100.00;95895.53;5037681;28;20011;-60
2022/04/22 03:15:23;;;;;;;;;;;4.90;99.90;;;4.30;100.00;95901.59;5034240;28;19936;-61
2022/04/22 03:17:49;;;;;;;;;;;4.90;99.90;;;4.29;100.00;95907.72;5037025;28;19956;-61
2022/04/22 03:20:14;;;;;;;;;;;4.90;99.90;;;4.27;100.00;95899.09;5033196;28;20198;-61
2022/04/22 03:22:40;;;;;;;;;;;4.90;99.90;;;4.23;100.00;95889.66;5032302;28;19925;-61
2022/04/22 03:25:06;;;;;;;;;;;4.80;99.90;;;4.20;100.00;95895.03;5035642;28;19925;-61
2022/04/22 03:27:32;;;;;;;;;;;4.80;99.90;;;4.12;100.00;95871.78;5033930;28;20402;-61
2022/04/22 03:29:58;;;;;;;;;;;4.80;99.90;;;4.19;100.00;95882.88;5034001;28;20015;-61
2022/04/22 03:32:24;;;;;;;;;;;4.80;99.90;;;4.18;100.00;95889.84;5032284;28;19932;-61
2022/04/22 03:34:49;;;;;;;;;;;4.80;99.90;;;4.17;100.00;95882.91;5035232;28;19929;-61
2022/04/22 03:37:15;;;;;;;;;;;4.80;99.90;;;4.13;100.00;95885.72;5035388;28;20003;-61
2022/04/22 03:39:41;;;;;;;;;;;4.80;99.90;;;4.09;100.00;95886.69;5032647;28;19925;-61
2022/04/22 03:42:07;;;;;;;;;;;4.80;99.90;;;4.09;100.00;95886.69;5034622;28;20292;-61
2022/04/22 03:44:33;;;;;;;;;;;4.70;99.90;;;3.96;100.00;95863.66;5034275;28;19970;-61
2022/04/22 03:46:58;;;;;;;;;;;4.70;99.90;;;4.12;100.00;95879.63;5034041;28;20035;-61
2022/04/22 03:49:24;;;;;;;;;;;4.70;99.90;;;4.12;100.00;95886.59;5032947;28;20347;-61
2022/04/22 03:51:49;;;;;;;;;;;4.80;99.90;;;4.11;100.00;95887.50;5032256;28;22385;-61
2022/04/22 03:54:18;;;;;;;;;;;4.70;99.90;;;3.88;100.00;95852.66;5034768;28;19921;-61
2022/04/22 03:59:28;;;;;;;;;;;4.70;99.90;;;3.92;100.00;95875.09;5032519;28;19932;-62
2022/04/22 04:01:54;;;;;;;;;;;4.60;99.90;;;3.97;100.00;95872.34;5032647;28;20567;-61
2022/04/22 04:04:20;;;;;;;;;;;4.60;99.90;;;3.91;100.00;95883.84;5033099;28;19925;-61
2022/04/22 04:06:46;;;;;;;;;;;4.60;99.90;;;3.88;100.00;95881.34;5031318;28;19940;-61
2022/04/22 04:17:24;;;;;;;;;;;4.40;99.90;;;3.68;100.00;95862.91;5030944;28;19923;-61
2022/04/22 04:25:18;;;;;;;;;;;4.40;99.90;;;3.61;100.00;95852.72;5031238;28;19967;-61
2022/04/22 04:27:45;;;;;;;;;;;4.40;99.90;;;3.75;100.00;95887.88;5035037;28;19928;-61
2022/04/22 04:30:11;;;;;;;;;;;4.40;99.90;;;3.75;100.00;95887.88;5035224;28;19963;-61
2022/04/22 04:32:36;;;;;;;;;;;4.40;99.90;;;3.77;100.00;95896.53;5035851;28;20329;-61
2022/04/22 04:35:02;;;;;;;;;;;4.40;99.90;;;3.75;100.00;95888.75;5037805;28;19936;-61
2022/04/22 04:37:27;;;;;;;;;;;4.40;99.90;;;3.78;100.00;95888.63;5036104;28;20725;-61
2022/04/22 04:39:56;;;;;;;;;;;4.40;99.90;;;3.75;100.00;95880.03;5017386;28;19951;-61
2022/04/22 04:42:24;;;;;;;;;;;4.50;99.90;;;3.84;100.00;95882.38;5037523;28;20354;-61
2022/04/22 04:44:50;;;;;;;;;;;4.50;99.90;;;3.80;100.00;95875.53;5039278;28;19924;-61
2022/04/22 04:47:16;;;;;;;;;;;4.50;99.90;;;3.89;100.00;95885.63;5039507;28;19991;-61
2022/04/22 04:49:42;;;;;;;;;;;4.50;99.90;;;3.91;100.00;95888.19;5053337;22;20428;-57
2022/04/22 04:52:08;;;;;;;;;;;4.60;99.90;;;3.94;100.00;95886.34;5017798;28;19995;-57
2022/04/22 04:54:33;;;;;;;;;;;4.60;99.90;;;3.94;100.00;95886.34;5031106;28;19929;-57
2022/04/22 04:56:59;;;;;;;;;;;4.60;99.90;;;4.04;100.00;95889.50;5032273;28;19921;-56
2022/04/22 04:59:25;;;;;;;;;;;4.70;99.90;;;4.09;100.00;95889.31;5036574;28;19935;-56
2022/04/22 05:01:50;;;;;;;;;;;4.70;99.90;;;4.14;100.00;95890.00;5040010;28;19928;-57
2022/04/22 05:04:16;;;;;;;;;;;4.80;99.90;;;4.22;100.00;95895.81;5036675;28;20452;-57
2022/04/22 05:06:41;;;;;;;;;;;4.90;99.90;;;4.32;100.00;95894.53;5034946;28;20199;-57
2022/04/22 05:09:07;;;;;;;;;;;5.00;99.90;;;4.39;100.00;95896.03;5041310;28;19924;-56
2022/04/22 05:11:33;;;;;;;;;;;5.10;99.90;;;4.51;100.00;95893.91;5039175;28;19951;-56
2022/04/22 05:13:58;;;;;;;;;;;5.20;99.90;;;4.56;100.00;95882.38;5037301;28;19931;-56
2022/04/22 05:16:24;;;;;;;;;;;5.20;99.90;;;4.65;100.00;95885.53;5040915;28;19987;-57
2022/04/22 05:18:50;;;;;;;;;;;5.30;99.90;;;4.74;100.00;95886.03;5040059;28;19932;-56
2022/04/22 05:21:15;;;;;;;;;;;5.40;99.90;;;4.77;100.00;95878.09;5038938;28;19924;-56
2022/04/22 05:23:41;;;;;;;;;;;5.40;99.90;;;4.85;100.00;95876.97;5034162;28;20420;-56
2022/04/22 05:26:06;;;;;;;;;;;5.50;99.90;;;4.92;100.00;95881.03;5039748;28;20008;-56
2022/04/22 05:28:32;;;;;;;;;;;5.50;99.90;;;4.97;100.00;95881.69;5039934;28;19928;-57
2022/04/22 05:33:43;;;;;;;;;;;5.70;99.90;;;5.11;100.00;95887.22;5035220;28;19978;-56
2022/04/22 05:36:09;;;;;;;;;;;5.70;99.90;;;5.15;100.00;95883.59;5039334;28;19921;-56
2022/04/22 05:38:35;;;;;;;;;;;5.80;99.90;;;5.20;100.00;95880.78;5035665;28;19933;-56
2022/04/22 05:41:00;;;;;;;;;;;5.80;99.90;;;5.24;100.00;95890.22;5033294;28;23111;-56
2022/04/22 05:43:26;;;;;;;;;;;5.80;99.90;;;5.33;100.00;95886.38;5033061;28;19952;-55
2022/04/22 05:45:51;;;;;;;;;;;5.90;99.90;;;5.35;100.00;95888.00;5036414;28;20263;-55
2022/04/22 05:48:17;;;;;;;;;;;6.00;99.90;;;5.45;100.00;95883.25;5035261;28;19925;-56
2022/04/22 05:50:43;;;;;;;;;;;6.00;99.90;;;5.50;100.00;95880.47;5031321;28;20356;-57
2022/04/22 05:53:08;;;;;;;;;;;6.10;99.90;;;5.57;100.00;95886.28;5035936;28;20312;-57
2022/04/22 05:55:34;;;;;;;;;;;6.10;99.90;;;5.68;100.00;95884.06;5035412;28;20198;-56
2022/04/22 05:58:00;;;;;;;;;;;6.30;99.90;;;5.77;100.00;95878.44;5037785;28;19931;-57
2022/04/22 06:00:27;;;;;;;;;;;6.30;99.90;;;5.86;100.00;95883.28;5035477;28;20404;-57
2022/04/22 06:02:54;;;;;;;;;;;6.50;99.90;;;5.96;100.00;95880.31;5036266;28;20007;-56
2022/04/22 06:05:20;;;;;;;;;;;6.50;99.90;;;6.04;100.00;95886.91;5036734;28;19975;-56
2022/04/22 06:07:46;;;;;;;;;;;6.60;99.90;;;6.06;100.00;95874.59;5034454;28;19932;-57
2022/04/22 06:10:31;;;;;;;;;;;6.70;99.90;;;6.12;100.00;95876.13;5035078;28;20385;-55
2022/04/22 06:12:58;;;;;;;;;;;6.70;99.90;;;6.11;100.00;95866.56;5033708;28;19986;-55
2022/04/22 06:15:24;;;;;;;;;;;6.80;99.90;;;6.33;100.00;95879.56;5019717;28;19924;-54
2022/04/22 06:17:49;;;;;;;;;;;6.90;99.90;;;6.39;100.00;95881.03;5036454;28;19929;-57
2022/04/22 06:20:15;;;;;;;;;;;7.00;99.90;;;6.48;100.00;95871.03;5034588;28;20010;-57
2022/04/22 06:22:41;;;;;;;;;;;7.10;99.90;;;6.54;100.00;95872.50;5035771;28;19924;-57
2022/04/22 06:25:09;;;;;;;;;;;7.10;99.90;;;6.65;100.00;95867.63;5035322;28;19925;-56
2022/04/22 06:27:38;;;;;;;;;;;7.20;99.90;;;6.77;100.00;95874.09;5034402;28;19940;-57
2022/04/22 06:30:15;;;;;;;;;;;7.30;99.90;;;6.81;100.00;95867.78;5038475;28;19916;-57
2022/04/22 06:32:43;;;;;;;;;;;7.40;99.90;;;6.89;100.00;95883.13;5034503;28;19990;-57
2022/04/22 06:35:10;;;;;;;;;;;7.50;99.90;;;6.93;100.00;95883.84;5034083;28;19939;-55
2022/04/22 06:37:41;;;;;;;;;;;7.50;99.90;;;7.09;100.00;95874.34;5036117;28;20019;-57
2022/04/22 06:45:47;;;;;;;;;;;7.90;99.90;;;7.38;100.00;95859.84;5034868;28;19970;-56
2022/04/22 06:48:32;;;;;;;;;;;8.00;99.90;;;7.51;100.00;95860.06;5021006;28;20289;-55
2022/04/22 06:50:59;;;;;;;;;;;8.10;99.90;;;7.65;100.00;95862.88;5035058;28;19929;-56
2022/04/22 06:53:25;;;;;;;;;;;8.30;99.90;;;7.76;99.75;95859.69;5036457;28;19925;-57
2022/04/22 06:55:53;;;;;;;;;;;8.30;99.90;;;7.88;99.09;95865.25;5034653;28;20015;-57
2022/04/22 06:58:20;;;;;;;;;;;8.40;99.90;;;8.00;98.64;95862.00;5038445;28;19924;-57
2022/04/22 07:00:46;;;;;;;;;;;8.60;99.90;;;8.14;97.46;95856.06;5034135;28;19921;-56
2022/04/22 07:03:13;;;;;;;;;;;8.70;99.90;;;8.25;95.68;95861.59;5036812;28;19925;-57
2022/04/22 07:05:40;;;;;;;;;;;8.80;99.90;;;8.38;95.37;95848.66;5035094;28;19967;-56
2022/04/22 07:08:13;;;;;;;;;;;8.90;99.90;;;8.53;93.77;95855.75;5037997;28;19928;-56
2022/04/22 07:10:42;;;;;;;;;;;9.10;99.90;;;8.57;92.29;95854.66;5033962;28;19927;-56
2022/04/22 07:13:08;;;;;;;;;;;9.20;99.90;;;8.67;90.66;95855.03;5038265;28;19917;-57
2022/04/22 07:15:34;;;;;;;;;;;9.30;99.90;;;8.77;90.42;95852.72;5031688;28;19936;-60
2022/04/22 07:18:00;;;;;;;;;;;9.30;99.90;;;8.86;89.99;95851.38;5018547;28;20087;-56
2022/04/22 07:20:26;;;;;;;;;;;9.40;99.90;;;8.86;89.78;95843.50;5035338;28;20309;-57
2022/04/22 07:22:53;;;;;;;;;;;9.40;99.90;;;8.87;88.34;95843.41;5033785;28;19925;-56
2022/04/22 07:25:20;;;;;;;;;;;9.50;99.90;;;8.93;88.67;95852.75;5029947;28;19924;-57
2022/04/22 07:27:47;;;;;;;;;;;9.50;99.90;;;9.00;88.81;95840.13;5035261;28;19925;-57
2022/04/22 07:30:15;;;;;;;;;;;9.60;99.90;;;8.96;87.89;95835.03;5030502;28;20018;-55
2022/04/22 07:32:42;;;;;;;;;;;9.60;99.90;;;9.13;88.27;95846.38;5022469;28;19928;-55
2022/04/22 07:35:12;;;;;;;;;;;9.60;99.90;;;9.24;87.04;95843.16;5030487;28;19921;-56
2022/04/22 07:37:41;;;;;;;;;;;9.80;99.90;;;9.34;86.29;95845.16;5033117;28;19920;-56
2022/04/22 07:40:07;;;;;;;;;;;9.90;99.90;;;9.44;85.43;95849.91;5013359;28;20533;-56
2022/04/22 07:42:34;;;;;;;;;;;10.00;99.90;;;9.60;85.90;95852.50;5031193;28;22856;-57
2022/04/22 07:47:47;;;;;;;;;;;10.30;99.90;;;9.92;84.09;95847.97;5036799;28;20129;-57
2022/04/22 07:50:14;;;;;;;;;;;10.40;99.90;;;10.03;82.44;95848.22;5037072;28;19936;-59
2022/04/22 07:52:44;;;;;;;;;;;10.60;99.90;;;10.14;82.73;95844.94;5036615;28;19932;-58
2022/04/22 07:55:09;;;;;;;;;;;10.70;99.90;;;10.33;82.79;95852.59;5016213;28;20186;-59
2022/04/22 07:57:35;;;;;;;;;;;10.80;99.90;;;10.39;81.01;95844.34;5026091;28;20380;-59
2022/04/22 08:00:01;;;;;;;;;;;10.90;99.90;;;10.44;81.48;95844.88;5022977;28;20372;-58
2022/04/22 08:02:26;;;;;;;;;;;10.90;99.90;;;10.47;80.69;95828.88;5023361;28;19921;-59
2022/04/22 08:04:52;;;;;;;;;;;11.00;99.90;;;10.55;80.07;95836.34;5026652;28;19931;-59
2022/04/22 08:07:18;;;;;;;;;;;11.00;99.90;;;10.79;79.84;95839.22;5025454;28;19963;-59
2022/04/22 08:09:47;;;;;;;;;;;11.20;99.90;;;10.98;78.06;95831.00;5036178;28;19931;-58
2022/04/22 08:12:13;;;;;;;;;;;11.30;99.90;;;10.72;78.13;95835.28;5027823;28;20003;-60
2022/04/22 08:14:40;;;;;;;;;;;11.30;99.90;;;10.72;77.26;95842.34;5036121;28;20016;-59
2022/04/22 08:17:06;;;;;;;;;;;11.30;99.90;;;10.67;77.92;95834.72;5038015;28;20511;-58
2022/04/22 08:19:32;;;;;;;;;;;11.20;99.90;;;10.60;78.25;95823.69;5035089;28;20345;-59
2022/04/22 08:21:57;;;;;;;;;;;11.20;99.90;;;10.54;78.78;95832.00;5037903;28;20357;-59
2022/04/22 08:24:23;;;;;;;;;;;11.20;99.90;;;10.53;77.41;95824.19;5036936;28;20051;-58
2022/04/22 08:26:49;;;;;;;;;;;11.10;99.90;;;10.57;78.37;95831.81;5033177;28;20448;-59
2022/04/22 08:29:14;;;;;;;;;;;11.10;99.90;;;10.62;77.09;95831.50;5035484;28;19936;-59
2022/04/22 08:31:40;;;;;;;;;;;11.10;99.90;;;10.53;76.09;95824.19;5029129;28;19920;-59
2022/04/22 08:34:05;;;;;;;;;;;11.10;99.90;;;10.63;77.05;95827.94;5031831;28;19956;-58
2022/04/22 08:36:32;;;;;;;;;;;11.10;99.90;;;10.78;77.02;95821.69;5029040;28;20385;-59
2022/04/22 08:38:57;;;;;;;;;;;11.20;99.90;;;10.93;76.36;95826.94;5019389;28;20268;-59
2022/04/22 08:41:23;;;;;;;;;;;11.40;99.90;;;11.06;76.43;95822.59;5033574;28;19931;-58
2022/04/22 08:43:56;;;;;;;;;;;11.50;99.90;;;11.18;75.61;95820.94;5004313;28;20108;-57
2022/04/22 08:51:51;;;;;;;;;;;11.90;99.90;;;11.41;73.30;95811.53;5028859;28;20019;-58
2022/04/22 08:54:20;;;;;;;;;;;11.90;99.90;;;11.49;73.88;95813.69;5023968;28;19921;-58
2022/04/22 08:56:46;;;;;;;;;;;11.90;99.90;;;11.47;73.95;95808.50;5026799;28;19928;-58
2022/04/22 08:59:12;;;;;;;;;;;12.00;99.90;;;11.45;71.96;95805.13;5034336;28;19928;-58
2022/04/22 09:01:38;;;;;;;;;;;12.00;99.90;;;11.56;72.58;95812.34;5030563;28;20407;-58
2022/04/22 09:04:04;;;;;;;;;;;12.10;99.90;;;11.67;72.63;95811.63;5027606;28;19929;-58
2022/04/22 09:06:30;;;;;;;;;;;12.10;99.90;;;11.81;71.86;95806.28;5031572;28;19932;-58
2022/04/22 09:08:57;;;;;;;;;;;12.30;99.90;;;11.72;69.93;95804.22;5034485;28;19917;-58
2022/04/22 09:11:23;;;;;;;;;;;12.20;99.90;;;11.67;69.68;95796.63;5037409;28;19928;-58
2022/04/22 09:13:49;;;;;;;;;;;12.20;99.90;;;11.81;71.92;95799.19;5032135;28;19921;-58
2022/04/22 09:16:21;;;;;;;;;;;12.30;99.90;;;11.91;69.28;95793.31;5030489;28;19932;-58
2022/04/22 09:18:48;;;;;;;;;;;12.40;99.90;;;12.05;69.51;95795.03;5040336;28;19974;-58
2022/04/22 09:21:14;;;;;;;;;;;12.50;99.90;;;12.16;69.29;95789.84;5019778;28;19925;-58
2022/04/22 09:23:40;;;;;;;;;;;12.60;99.90;;;12.27;69.12;95783.81;5032727;28;19982;-59
2022/04/22 09:26:18;;;;;;;;;;;12.70;99.90;;;12.33;67.80;95789.53;5032940;28;20364;-59
2022/04/22 09:28:57;;;;;;;;;;;12.80;99.90;;;12.18;68.33;95780.00;5039957;28;19917;-58
2022/04/22 09:31:23;;;;;;;;;;;12.70;99.90;;;12.05;68.19;95777.38;5036022;28;19958;-59
2022/04/22 09:33:50;;;;;;;;;;;12.60;99.90;;;12.19;69.20;95771.13;5037804;28;19928;-58
2022/04/22 09:45:07;;;;;;;;;;;12.90;99.90;;;12.49;67.51;95775.22;5034182;28;19936;-58
2022/04/22 09:47:33;;;;;;;;;;;13.00;99.90;;;12.51;66.95;95765.41;5039492;28;20151;-58
2022/04/22 09:50:00;;;;;;;;;;;12.90;99.90;;;12.30;67.35;95770.38;5035777;28;19928;-58
2022/04/22 09:52:27;;;;;;;;;;;12.80;99.90;;;12.50;67.08;95779.56;5014943;28;19923;-59
2022/04/22 09:55:01;;;;;;;;;;;12.90;99.90;;;12.51;66.57;95768.88;5029190;28;19935;-59
2022/04/22 09:57:28;;;;;;;;;;;13.00;99.90;;;12.72;65.01;95766.53;5037932;28;20074;-59
2022/04/22 09:59:54;;;;;;;;;;;13.10;99.90;;;12.72;64.91;95763.88;5007095;28;20035;-59
2022/04/22 10:02:23;;;;;;;;;;;13.20;99.90;;;12.88;66.62;95760.09;5035195;28;19971;-59
2022/04/22 10:04:49;;;;;;;;;;;13.30;99.90;;;13.05;66.49;95774.78;5037263;28;19931;-58
2022/04/22 10:07:17;;;;;;;;;;;13.40;99.90;;;13.13;64.76;95760.00;5035075;28;19924;-59
2022/04/22 10:09:45;;;;;;;;;;;13.60;99.90;;;13.03;62.77;95766.94;5031795;28;19947;-59
2022/04/22 10:12:12;;;;;;;;;;;13.60;99.90;;;12.98;64.01;95764.63;5029762;28;20123;-58
2022/04/22 10:14:38;;;;;;;;;;;13.40;99.90;;;12.97;64.60;95762.09;5016576;28;20290;-59
2022/04/22 10:17:05;;;;;;;;;;;13.40;99.90;;;13.07;64.05;95763.09;5034341;28;19921;-59
2022/04/22 10:19:34;;;;;;;;;;;13.50;99.90;;;13.26;63.44;95752.03;5031277;28;19924;-59
2022/04/22 10:22:00;;;;;;;;;;;13.70;99.90;;;13.49;61.80;95760.91;5033411;28;19924;-58
2022/04/22 10:24:26;;;;;;;;;;;14.00;99.90;;;13.65;62.26;95763.25;5027902;28;19970;-58
2022/04/22 10:26:52;;;;;;;;;;;14.10;99.90;;;13.88;60.94;95764.16;5028947;28;20336;-58
2022/04/22 10:29:19;;;;;;;;;;;14.40;99.90;;;14.03;58.03;95766.59;5034112;28;19969;-58
2022/04/22 10:31:44;;;;;;;;;;;14.60;99.90;;;14.13;56.41;95755.19;5036210;28;19935;-59
2022/04/22 10:34:10;;;;;;;;;;;14.70;99.90;;;14.29;57.58;95762.78;5019927;28;19920;-59
2022/04/22 10:36:37;;;;;;;;;;;14.90;99.90;;;14.42;57.58;95751.22;5027279;28;19929;-58
2022/04/22 10:39:03;;;;;;;;;;;15.00;99.80;;;14.72;56.40;95752.47;5034490;28;20020;-58
2022/04/22 10:41:33;;;;;;;;;;;15.20;99.70;;;14.91;55.58;95747.34;5031930;28;20074;-59
2022/04/22 10:49:37;;;;;;;;;;;16.30;98.20;;;16.22;51.93;95747.13;5036587;28;19924;-58
2022/04/22 10:52:18;;;;;;;;;;;16.80;97.00;;;16.44;52.10;95750.59;5044809;23;19925;-53
2022/04/22 10:54:52;;;;;;;;;;;16.90;96.70;;;16.39;50.79;95737.72;5037324;28;19995;-52
2022/04/22 10:57:35;;;;;;;;;;;17.00;95.40;;;16.33;50.23;95740.91;5029435;28;19928;-53
2022/04/22 11:00:07;;;;;;;;;;;17.00;95.00;;;16.15;50.82;95745.97;5034294;28;19971;-52
2022/04/22 11:02:34;;;;;;;;;;;16.80;95.10;;;15.96;49.93;95744.06;5033552;28;19921;-54
2022/04/22 11:05:18;;;;;;;;;;;16.60;94.10;;;15.71;51.92;95742.59;5032983;28;21589;-54
2022/04/22 11:07:50;;;;;;;;;;;16.30;95.00;;;15.62;53.02;95734.41;5032628;28;20069;-51
2022/04/22 11:10:25;;;;;;;;;;;16.20;95.80;;;15.45;51.82;95724.34;5029405;28;19925;-52
2022/04/22 11:12:58;;;;;;;;;;;16.10;94.80;;;15.35;53.86;95729.59;5030841;28;19917;-53
2022/04/22 11:15:42;;;;;;;;;;;15.90;96.10;;;15.34;53.69;95727.06;5033171;28;19925;-54
2022/04/22 11:18:12;;;;;;;;;;;15.90;96.20;;;15.46;54.92;95726.88;5039982;28;19924;-53
2022/04/22 11:20:38;;;;;;;;;;;15.90;96.50;;;15.59;54.38;95737.31;5028099;28;20388;-55
2022/04/22 11:23:06;;;;;;;;;;;16.00;96.50;;;15.50;53.42;95732.78;5033083;28;19927;-53
2022/04/22 11:25:33;;;;;;;;;;;16.00;95.90;;;15.38;53.14;95733.78;5033759;28;20403;-54
2022/04/22 11:27:59;;;;;;;;;;;15.90;95.50;;;15.33;53.59;95720.09;5032547;28;19971;-54
2022/04/22 11:30:26;;;;;;;;;;;15.90;95.70;;;15.51;54.95;95728.34;5032573;28;19932;-52
2022/04/22 11:33:26;;;;;;;;;;;15.90;96.50;;;15.69;53.44;95721.47;5035965;28;20003;-54
2022/04/22 11:35:54;;;;;;;;;;;16.10;95.80;;;15.76;54.34;95716.53;5033479;28;19921;-53
2022/04/22 11:38:20;;;;;;;;;;;16.30;96.00;;;15.78;53.68;95726.03;5034428;28;20011;-52
2022/04/22 11:40:49;;;;;;;;;;;16.30;95.60;;;15.70;52.97;95725.81;5034822;28;19943;-53
2022/04/22 11:43:14;;;;;;;;;;;16.20;94.90;;;15.80;53.24;95723.25;5034522;28;19920;-53
2022/04/22 11:45:42;;;;;;;;;;;16.30;95.30;;;15.79;52.14;95710.94;5033824;28;19921;-53
2022/04/22 11:48:08;;;;;;;;;;;16.30;94.90;;;15.83;53.29;95707.88;5037527;28;19925;-53
2022/04/22 11:50:42;;;;;;;;;;;16.30;95.00;;;15.99;50.17;95710.09;5030227;28;19916;-50
2022/04/22 11:53:16;;;;;;;;;;;16.40;93.80;;;16.07;51.19;95703.28;5032418;28;19927;-49
2022/04/22 11:55:42;;;;;;;;;;;16.60;93.80;;;16.20;51.46;95720.69;5031518;28;20500;-52
2022/04/22 11:58:09;;;;;;;;;;;16.70;94.10;;;16.15;50.98;95716.72;5028320;28;20207;-51
2022/04/22 12:06:07;;;;;;;;;;;16.70;93.50;;;16.22;49.24;95683.31;5029765;28;20729;-53
2022/04/22 12:08:33;;;;;;;;;;;16.80;92.90;;;16.52;48.88;95700.25;5033274;28;19925;-51
2022/04/22 12:10:58;;;;;;;;;;;17.00;92.70;;;16.67;47.77;95698.03;5032428;28;19928;-54
2022/04/22 12:13:25;;;;;;;;;;;17.20;91.40;;;16.78;49.44;95704.09;5031854;28;19988;-52
2022/04/22 12:15:50;;;;;;;;;;;17.30;92.30;;;16.73;48.98;95705.50;5033720;28;20391;-50
2022/04/22 12:18:35;;;;;;;;;;;17.30;92.30;;;16.41;48.99;95706.50;5031783;28;19920;-54
2022/04/22 12:21:02;;;;;;;;;;;17.00;91.40;;;16.30;48.03;95699.47;5031914;28;20270;-52
2022/04/22 12:23:41;;;;;;;;;;;16.90;91.10;;;16.31;49.17;95694.97;5025838;28;19986;-52
2022/04/22 12:26:22;;;;;;;;;;;16.80;91.50;;;16.37;49.60;95697.13;5030422;28;19921;-51
2022/04/22 12:29:16;;;;;;;;;;;16.90;92.20;;;16.51;48.55;95704.72;5033074;28;19925;-50
2022/04/22 12:31:47;;;;;;;;;;;17.00;91.40;;;16.50;49.15;95702.19;5031517;28;19920;-50